sensor_id;sensor_type;location;lat;lon;timestamp;P1;durP1;ratioP1;P2;durP2;ratioP2
78908;SDS011;68298;37.368;127.108;2023-05-07T00:02:07;25.63;;;19.83;;
78908;SDS011;68298;37.368;127.108;2023-05-07T00:04:38;23.98;;;18.55;;
78908;SDS011;68298;37.368;127.108;2023-05-07T00:07:08;25.60;;;18.77;;
78908;SDS011;68298;37.368;127.108;2023-05-07T00:09:39;24.67;;;18.55;;
78908;SDS011;68298;37.368;127.108;2023-05-07T00:12:10;21.63;;;17.15;;
78908;SDS011;68298;37.368;127.108;2023-05-07T00:14:41;21.95;;;17.00;;
78908;SDS011;68298;37.368;127.108;2023-05-07T00:17:11;21.13;;;16.70;;
78908;SDS011;68298;37.368;127.108;2023-05-07T00:19:42;22.70;;;16.63;;
78908;SDS011;68298;37.368;127.108;2023-05-07T00:22:12;20.33;;;15.27;;
78908;SDS011;68298;37.368;127.108;2023-05-07T00:24:43;21.90;;;15.88;;
78908;SDS011;68298;37.368;127.108;2023-05-07T00:27:13;19.90;;;14.80;;
78908;SDS011;68298;37.368;127.108;2023-05-07T00:29:43;18.88;;;14.13;;
78908;SDS011;68298;37.368;127.108;2023-05-07T00:32:14;19.38;;;14.73;;
78908;SDS011;68298;37.368;127.108;2023-05-07T00:34:45;18.33;;;14.00;;
78908;SDS011;68298;37.368;127.108;2023-05-07T00:37:15;17.08;;;12.93;;
78908;SDS011;68298;37.368;127.108;2023-05-07T00:39:45;17.83;;;13.75;;
78908;SDS011;68298;37.368;127.108;2023-05-07T00:42:16;19.27;;;13.73;;
78908;SDS011;68298;37.368;127.108;2023-05-07T00:44:47;16.85;;;12.10;;
78908;SDS011;68298;37.368;127.108;2023-05-07T00:47:17;17.25;;;12.70;;
78908;SDS011;68298;37.368;127.108;2023-05-07T00:49:48;16.08;;;12.43;;
78908;SDS011;68298;37.368;127.108;2023-05-07T00:52:20;16.30;;;12.40;;
78908;SDS011;68298;37.368;127.108;2023-05-07T00:54:54;16.85;;;12.48;;
78908;SDS011;68298;37.368;127.108;2023-05-07T00:57:25;16.08;;;11.98;;
78908;SDS011;68298;37.368;127.108;2023-05-07T00:59:56;16.23;;;12.15;;
78908;SDS011;68298;37.368;127.108;2023-05-07T01:02:26;15.95;;;11.80;;
78908;SDS011;68298;37.368;127.108;2023-05-07T01:04:57;13.80;;;11.20;;
78908;SDS011;68298;37.368;127.108;2023-05-07T01:07:28;14.98;;;10.95;;
78908;SDS011;68298;37.368;127.108;2023-05-07T01:09:59;16.00;;;11.32;;
78908;SDS011;68298;37.368;127.108;2023-05-07T01:12:30;13.70;;;11.07;;
78908;SDS011;68298;37.368;127.108;2023-05-07T01:15:01;14.10;;;10.52;;
78908;SDS011;68298;37.368;127.108;2023-05-07T01:17:34;13.80;;;10.57;;
78908;SDS011;68298;37.368;127.108;2023-05-07T01:20:09;14.00;;;10.35;;
78908;SDS011;68298;37.368;127.108;2023-05-07T01:22:44;14.68;;;10.60;;
78908;SDS011;68298;37.368;127.108;2023-05-07T01:25:15;14.18;;;10.27;;
78908;SDS011;68298;37.368;127.108;2023-05-07T01:27:49;13.48;;;10.00;;
78908;SDS011;68298;37.368;127.108;2023-05-07T01:30:24;14.45;;;10.48;;
78908;SDS011;68298;37.368;127.108;2023-05-07T01:33:03;13.70;;;9.95;;
78908;SDS011;68298;37.368;127.108;2023-05-07T01:35:41;14.17;;;10.43;;
78908;SDS011;68298;37.368;127.108;2023-05-07T01:38:14;12.68;;;9.70;;
78908;SDS011;68298;37.368;127.108;2023-05-07T01:40:45;11.82;;;9.40;;
78908;SDS011;68298;37.368;127.108;2023-05-07T01:43:16;13.85;;;9.85;;
78908;SDS011;68298;37.368;127.108;2023-05-07T01:45:48;13.02;;;9.43;;
78908;SDS011;68298;37.368;127.108;2023-05-07T01:48:19;11.65;;;8.85;;
78908;SDS011;68298;37.368;127.108;2023-05-07T01:50:50;11.93;;;8.88;;
78908;SDS011;68298;37.368;127.108;2023-05-07T01:53:20;14.77;;;9.38;;
78908;SDS011;68298;37.368;127.108;2023-05-07T01:55:51;12.52;;;9.50;;
78908;SDS011;68298;37.368;127.108;2023-05-07T01:58:23;11.77;;;8.60;;
78908;SDS011;68298;37.368;127.108;2023-05-07T02:00:54;11.93;;;8.70;;
78908;SDS011;68298;37.368;127.108;2023-05-07T02:03:25;11.65;;;8.35;;
78908;SDS011;68298;37.368;127.108;2023-05-07T02:06:04;10.60;;;8.32;;
78908;SDS011;68298;37.368;127.108;2023-05-07T02:11:08;11.52;;;9.05;;
78908;SDS011;68298;37.368;127.108;2023-05-07T02:13:38;11.07;;;8.35;;
78908;SDS011;68298;37.368;127.108;2023-05-07T02:16:09;11.13;;;8.52;;
78908;SDS011;68298;37.368;127.108;2023-05-07T02:18:40;10.93;;;8.32;;
78908;SDS011;68298;37.368;127.108;2023-05-07T02:21:10;12.05;;;8.57;;
78908;SDS011;68298;37.368;127.108;2023-05-07T02:23:41;9.63;;;7.55;;
78908;SDS011;68298;37.368;127.108;2023-05-07T02:26:15;10.88;;;8.27;;
78908;SDS011;68298;37.368;127.108;2023-05-07T02:28:45;11.55;;;8.50;;
78908;SDS011;68298;37.368;127.108;2023-05-07T02:31:17;10.98;;;8.10;;
78908;SDS011;68298;37.368;127.108;2023-05-07T02:33:48;10.50;;;7.53;;
78908;SDS011;68298;37.368;127.108;2023-05-07T02:36:18;10.32;;;7.90;;
78908;SDS011;68298;37.368;127.108;2023-05-07T02:38:55;11.32;;;7.95;;
78908;SDS011;68298;37.368;127.108;2023-05-07T02:41:27;10.45;;;8.07;;
78908;SDS011;68298;37.368;127.108;2023-05-07T02:43:58;11.55;;;8.23;;
78908;SDS011;68298;37.368;127.108;2023-05-07T02:46:30;11.00;;;8.15;;
78908;SDS011;68298;37.368;127.108;2023-05-07T02:49:05;10.82;;;8.25;;
78908;SDS011;68298;37.368;127.108;2023-05-07T02:51:37;9.93;;;7.70;;
78908;SDS011;68298;37.368;127.108;2023-05-07T02:54:12;10.80;;;7.60;;
78908;SDS011;68298;37.368;127.108;2023-05-07T02:56:42;11.07;;;7.90;;
78908;SDS011;68298;37.368;127.108;2023-05-07T02:59:13;10.68;;;8.38;;
78908;SDS011;68298;37.368;127.108;2023-05-07T03:01:43;11.55;;;8.05;;
78908;SDS011;68298;37.368;127.108;2023-05-07T03:04:15;10.30;;;7.75;;
78908;SDS011;68298;37.368;127.108;2023-05-07T03:06:47;9.82;;;7.43;;
78908;SDS011;68298;37.368;127.108;2023-05-07T03:09:17;12.02;;;7.93;;
78908;SDS011;68298;37.368;127.108;2023-05-07T03:11:49;9.55;;;7.40;;
78908;SDS011;68298;37.368;127.108;2023-05-07T03:14:19;9.77;;;7.50;;
78908;SDS011;68298;37.368;127.108;2023-05-07T03:16:50;10.82;;;8.20;;
78908;SDS011;68298;37.368;127.108;2023-05-07T03:19:20;10.73;;;8.23;;
78908;SDS011;68298;37.368;127.108;2023-05-07T03:21:51;10.30;;;7.75;;
78908;SDS011;68298;37.368;127.108;2023-05-07T03:24:21;10.88;;;7.55;;
78908;SDS011;68298;37.368;127.108;2023-05-07T03:26:52;10.98;;;7.60;;
78908;SDS011;68298;37.368;127.108;2023-05-07T03:29:23;10.20;;;7.53;;
78908;SDS011;68298;37.368;127.108;2023-05-07T03:31:53;10.70;;;7.40;;
78908;SDS011;68298;37.368;127.108;2023-05-07T03:34:24;9.20;;;7.32;;
78908;SDS011;68298;37.368;127.108;2023-05-07T03:36:54;10.00;;;8.00;;
78908;SDS011;68298;37.368;127.108;2023-05-07T03:39:25;10.02;;;7.57;;
78908;SDS011;68298;37.368;127.108;2023-05-07T03:41:56;9.35;;;7.03;;
78908;SDS011;68298;37.368;127.108;2023-05-07T03:44:28;9.63;;;7.18;;
78908;SDS011;68298;37.368;127.108;2023-05-07T03:46:59;10.32;;;7.32;;
78908;SDS011;68298;37.368;127.108;2023-05-07T03:49:31;9.27;;;6.75;;
78908;SDS011;68298;37.368;127.108;2023-05-07T03:52:01;8.85;;;6.75;;
78908;SDS011;68298;37.368;127.108;2023-05-07T03:54:32;12.23;;;7.90;;
78908;SDS011;68298;37.368;127.108;2023-05-07T03:57:03;9.77;;;7.22;;
78908;SDS011;68298;37.368;127.108;2023-05-07T03:59:35;8.50;;;6.70;;
78908;SDS011;68298;37.368;127.108;2023-05-07T04:02:07;8.82;;;6.90;;
78908;SDS011;68298;37.368;127.108;2023-05-07T04:04:38;9.07;;;6.88;;
78908;SDS011;68298;37.368;127.108;2023-05-07T04:07:09;9.30;;;7.35;;
78908;SDS011;68298;37.368;127.108;2023-05-07T04:09:43;8.23;;;6.70;;
78908;SDS011;68298;37.368;127.108;2023-05-07T04:12:14;9.20;;;7.00;;
78908;SDS011;68298;37.368;127.108;2023-05-07T04:14:45;10.75;;;7.80;;
78908;SDS011;68298;37.368;127.108;2023-05-07T04:17:16;8.90;;;6.97;;
78908;SDS011;68298;37.368;127.108;2023-05-07T04:19:46;9.20;;;6.90;;
78908;SDS011;68298;37.368;127.108;2023-05-07T04:22:17;10.10;;;7.32;;
78908;SDS011;68298;37.368;127.108;2023-05-07T04:24:49;10.07;;;7.05;;
78908;SDS011;68298;37.368;127.108;2023-05-07T04:27:19;11.50;;;7.10;;
78908;SDS011;68298;37.368;127.108;2023-05-07T04:29:50;6.78;;;5.85;;
78908;SDS011;68298;37.368;127.108;2023-05-07T04:32:21;10.50;;;7.13;;
78908;SDS011;68298;37.368;127.108;2023-05-07T04:34:52;10.00;;;6.72;;
78908;SDS011;68298;37.368;127.108;2023-05-07T04:37:23;9.27;;;7.30;;
78908;SDS011;68298;37.368;127.108;2023-05-07T04:39:55;8.45;;;7.32;;
78908;SDS011;68298;37.368;127.108;2023-05-07T04:42:27;8.13;;;6.60;;
78908;SDS011;68298;37.368;127.108;2023-05-07T04:47:33;8.55;;;6.82;;
78908;SDS011;68298;37.368;127.108;2023-05-07T04:50:04;8.88;;;6.68;;
78908;SDS011;68298;37.368;127.108;2023-05-07T04:52:37;7.47;;;6.45;;
78908;SDS011;68298;37.368;127.108;2023-05-07T04:55:09;9.43;;;6.47;;
78908;SDS011;68298;37.368;127.108;2023-05-07T04:57:40;8.63;;;6.63;;
78908;SDS011;68298;37.368;127.108;2023-05-07T05:00:13;10.15;;;6.82;;
78908;SDS011;68298;37.368;127.108;2023-05-07T05:02:45;8.90;;;6.22;;
78908;SDS011;68298;37.368;127.108;2023-05-07T05:05:19;9.43;;;6.97;;
78908;SDS011;68298;37.368;127.108;2023-05-07T05:07:52;9.80;;;6.78;;
78908;SDS011;68298;37.368;127.108;2023-05-07T05:10:24;9.98;;;6.70;;
78908;SDS011;68298;37.368;127.108;2023-05-07T05:12:55;9.02;;;6.75;;
78908;SDS011;68298;37.368;127.108;2023-05-07T05:15:27;8.25;;;6.43;;
78908;SDS011;68298;37.368;127.108;2023-05-07T05:18:01;7.90;;;6.07;;
78908;SDS011;68298;37.368;127.108;2023-05-07T05:20:33;8.02;;;6.18;;
78908;SDS011;68298;37.368;127.108;2023-05-07T05:23:03;8.68;;;6.32;;
78908;SDS011;68298;37.368;127.108;2023-05-07T05:25:35;8.20;;;6.35;;
78908;SDS011;68298;37.368;127.108;2023-05-07T05:30:38;7.95;;;6.18;;
78908;SDS011;68298;37.368;127.108;2023-05-07T05:33:09;8.25;;;6.55;;
78908;SDS011;68298;37.368;127.108;2023-05-07T05:35:40;8.65;;;6.60;;
78908;SDS011;68298;37.368;127.108;2023-05-07T05:38:12;7.72;;;6.50;;
78908;SDS011;68298;37.368;127.108;2023-05-07T05:40:43;10.35;;;6.70;;
78908;SDS011;68298;37.368;127.108;2023-05-07T05:43:15;8.35;;;6.32;;
78908;SDS011;68298;37.368;127.108;2023-05-07T05:45:45;8.68;;;6.00;;
78908;SDS011;68298;37.368;127.108;2023-05-07T05:48:16;8.05;;;6.32;;
78908;SDS011;68298;37.368;127.108;2023-05-07T05:50:48;7.55;;;5.95;;
78908;SDS011;68298;37.368;127.108;2023-05-07T05:53:18;10.00;;;6.05;;
78908;SDS011;68298;37.368;127.108;2023-05-07T05:55:50;8.00;;;6.40;;
78908;SDS011;68298;37.368;127.108;2023-05-07T05:58:20;8.60;;;6.45;;
78908;SDS011;68298;37.368;127.108;2023-05-07T06:00:56;8.25;;;6.28;;
78908;SDS011;68298;37.368;127.108;2023-05-07T06:03:28;7.93;;;5.72;;
78908;SDS011;68298;37.368;127.108;2023-05-07T06:08:31;7.63;;;5.80;;
78908;SDS011;68298;37.368;127.108;2023-05-07T06:11:03;8.45;;;6.13;;
78908;SDS011;68298;37.368;127.108;2023-05-07T06:13:36;8.20;;;6.05;;
78908;SDS011;68298;37.368;127.108;2023-05-07T06:16:07;8.43;;;6.78;;
78908;SDS011;68298;37.368;127.108;2023-05-07T06:18:38;8.07;;;5.95;;
78908;SDS011;68298;37.368;127.108;2023-05-07T06:21:09;7.55;;;5.78;;
78908;SDS011;68298;37.368;127.108;2023-05-07T06:23:40;9.65;;;6.00;;
78908;SDS011;68298;37.368;127.108;2023-05-07T06:26:11;8.27;;;6.00;;
78908;SDS011;68298;37.368;127.108;2023-05-07T06:28:45;7.05;;;5.70;;
78908;SDS011;68298;37.368;127.108;2023-05-07T06:31:17;6.65;;;5.53;;
78908;SDS011;68298;37.368;127.108;2023-05-07T06:33:54;7.57;;;5.93;;
78908;SDS011;68298;37.368;127.108;2023-05-07T06:36:31;6.90;;;5.38;;
78908;SDS011;68298;37.368;127.108;2023-05-07T06:39:09;7.97;;;5.80;;
78908;SDS011;68298;37.368;127.108;2023-05-07T06:41:40;6.10;;;5.22;;
78908;SDS011;68298;37.368;127.108;2023-05-07T06:44:21;7.30;;;5.57;;
78908;SDS011;68298;37.368;127.108;2023-05-07T06:47:12;9.25;;;6.05;;
78908;SDS011;68298;37.368;127.108;2023-05-07T06:49:46;6.43;;;5.13;;
78908;SDS011;68298;37.368;127.108;2023-05-07T06:52:20;7.10;;;5.40;;
78908;SDS011;68298;37.368;127.108;2023-05-07T06:54:52;7.53;;;5.00;;
78908;SDS011;68298;37.368;127.108;2023-05-07T06:57:24;7.00;;;5.45;;
78908;SDS011;68298;37.368;127.108;2023-05-07T06:59:55;6.25;;;5.10;;
78908;SDS011;68298;37.368;127.108;2023-05-07T07:02:26;6.82;;;5.10;;
78908;SDS011;68298;37.368;127.108;2023-05-07T07:04:57;7.30;;;5.43;;
78908;SDS011;68298;37.368;127.108;2023-05-07T07:07:27;7.53;;;5.72;;
78908;SDS011;68298;37.368;127.108;2023-05-07T07:09:58;6.55;;;4.97;;
78908;SDS011;68298;37.368;127.108;2023-05-07T07:12:29;6.85;;;5.72;;
78908;SDS011;68298;37.368;127.108;2023-05-07T07:14:59;6.55;;;5.22;;
78908;SDS011;68298;37.368;127.108;2023-05-07T07:17:31;7.03;;;5.70;;
78908;SDS011;68298;37.368;127.108;2023-05-07T07:20:02;7.53;;;5.55;;
78908;SDS011;68298;37.368;127.108;2023-05-07T07:22:33;5.65;;;4.97;;
78908;SDS011;68298;37.368;127.108;2023-05-07T07:25:03;6.20;;;4.93;;
78908;SDS011;68298;37.368;127.108;2023-05-07T07:27:35;5.72;;;4.78;;
78908;SDS011;68298;37.368;127.108;2023-05-07T07:30:07;6.60;;;5.07;;
78908;SDS011;68298;37.368;127.108;2023-05-07T07:32:40;7.10;;;5.25;;
78908;SDS011;68298;37.368;127.108;2023-05-07T07:35:11;6.88;;;5.03;;
78908;SDS011;68298;37.368;127.108;2023-05-07T07:37:43;6.88;;;5.45;;
78908;SDS011;68298;37.368;127.108;2023-05-07T07:40:14;7.35;;;5.80;;
78908;SDS011;68298;37.368;127.108;2023-05-07T07:42:45;6.68;;;5.18;;
78908;SDS011;68298;37.368;127.108;2023-05-07T07:45:15;6.07;;;5.13;;
78908;SDS011;68298;37.368;127.108;2023-05-07T07:47:47;6.60;;;5.27;;
78908;SDS011;68298;37.368;127.108;2023-05-07T07:50:18;5.82;;;4.82;;
78908;SDS011;68298;37.368;127.108;2023-05-07T07:53:08;5.97;;;4.60;;
78908;SDS011;68298;37.368;127.108;2023-05-07T07:55:39;7.35;;;5.25;;
78908;SDS011;68298;37.368;127.108;2023-05-07T07:58:13;5.75;;;4.45;;
78908;SDS011;68298;37.368;127.108;2023-05-07T08:00:44;6.25;;;4.70;;
78908;SDS011;68298;37.368;127.108;2023-05-07T08:03:14;5.82;;;4.50;;
78908;SDS011;68298;37.368;127.108;2023-05-07T08:05:50;6.03;;;5.03;;
78908;SDS011;68298;37.368;127.108;2023-05-07T08:08:21;5.55;;;4.60;;
78908;SDS011;68298;37.368;127.108;2023-05-07T08:10:53;5.53;;;4.63;;
78908;SDS011;68298;37.368;127.108;2023-05-07T08:13:30;6.40;;;4.30;;
78908;SDS011;68298;37.368;127.108;2023-05-07T08:16:02;4.90;;;4.10;;
78908;SDS011;68298;37.368;127.108;2023-05-07T08:18:34;5.90;;;4.40;;
78908;SDS011;68298;37.368;127.108;2023-05-07T08:21:05;4.88;;;4.00;;
78908;SDS011;68298;37.368;127.108;2023-05-07T08:23:36;5.85;;;4.30;;
78908;SDS011;68298;37.368;127.108;2023-05-07T08:26:07;4.80;;;3.95;;
78908;SDS011;68298;37.368;127.108;2023-05-07T08:28:39;5.82;;;4.25;;
78908;SDS011;68298;37.368;127.108;2023-05-07T08:31:09;6.07;;;4.20;;
78908;SDS011;68298;37.368;127.108;2023-05-07T08:33:43;5.88;;;3.80;;
78908;SDS011;68298;37.368;127.108;2023-05-07T08:36:13;3.83;;;3.42;;
78908;SDS011;68298;37.368;127.108;2023-05-07T08:38:44;4.22;;;3.42;;
78908;SDS011;68298;37.368;127.108;2023-05-07T08:41:15;5.25;;;4.25;;
78908;SDS011;68298;37.368;127.108;2023-05-07T08:43:47;4.93;;;3.97;;
78908;SDS011;68298;37.368;127.108;2023-05-07T08:46:20;4.43;;;3.67;;
78908;SDS011;68298;37.368;127.108;2023-05-07T08:48:54;4.03;;;3.30;;
78908;SDS011;68298;37.368;127.108;2023-05-07T08:51:25;4.50;;;3.72;;
78908;SDS011;68298;37.368;127.108;2023-05-07T08:53:57;4.50;;;3.67;;
78908;SDS011;68298;37.368;127.108;2023-05-07T08:56:32;4.82;;;3.63;;
78908;SDS011;68298;37.368;127.108;2023-05-07T08:59:03;5.88;;;4.43;;
78908;SDS011;68298;37.368;127.108;2023-05-07T09:01:33;4.35;;;3.70;;
78908;SDS011;68298;37.368;127.108;2023-05-07T09:04:06;4.43;;;3.45;;
78908;SDS011;68298;37.368;127.108;2023-05-07T09:06:38;3.75;;;3.30;;
78908;SDS011;68298;37.368;127.108;2023-05-07T09:09:16;4.97;;;3.35;;
78908;SDS011;68298;37.368;127.108;2023-05-07T09:11:57;4.70;;;3.80;;
78908;SDS011;68298;37.368;127.108;2023-05-07T09:14:33;5.10;;;3.50;;
78908;SDS011;68298;37.368;127.108;2023-05-07T09:17:04;4.40;;;3.40;;
78908;SDS011;68298;37.368;127.108;2023-05-07T09:19:35;4.55;;;3.38;;
78908;SDS011;68298;37.368;127.108;2023-05-07T09:22:07;4.47;;;3.17;;
78908;SDS011;68298;37.368;127.108;2023-05-07T09:24:49;4.13;;;3.35;;
78908;SDS011;68298;37.368;127.108;2023-05-07T09:27:24;5.32;;;3.70;;
78908;SDS011;68298;37.368;127.108;2023-05-07T09:32:27;4.10;;;3.20;;
78908;SDS011;68298;37.368;127.108;2023-05-07T09:34:59;4.20;;;3.45;;
78908;SDS011;68298;37.368;127.108;2023-05-07T09:37:30;4.47;;;3.58;;
78908;SDS011;68298;37.368;127.108;2023-05-07T09:40:01;4.57;;;3.58;;
78908;SDS011;68298;37.368;127.108;2023-05-07T09:42:33;4.13;;;3.25;;
78908;SDS011;68298;37.368;127.108;2023-05-07T09:45:05;3.95;;;3.13;;
78908;SDS011;68298;37.368;127.108;2023-05-07T09:47:38;3.92;;;3.38;;
78908;SDS011;68298;37.368;127.108;2023-05-07T09:50:14;4.85;;;3.60;;
78908;SDS011;68298;37.368;127.108;2023-05-07T09:52:45;4.07;;;3.30;;
78908;SDS011;68298;37.368;127.108;2023-05-07T09:55:17;3.53;;;3.15;;
78908;SDS011;68298;37.368;127.108;2023-05-07T09:57:51;3.80;;;3.08;;
78908;SDS011;68298;37.368;127.108;2023-05-07T10:00:27;4.25;;;3.45;;
78908;SDS011;68298;37.368;127.108;2023-05-07T10:03:07;4.40;;;3.10;;
78908;SDS011;68298;37.368;127.108;2023-05-07T10:05:47;4.07;;;2.90;;
78908;SDS011;68298;37.368;127.108;2023-05-07T10:08:19;3.72;;;3.33;;
78908;SDS011;68298;37.368;127.108;2023-05-07T10:10:53;3.78;;;3.10;;
78908;SDS011;68298;37.368;127.108;2023-05-07T10:15:58;4.35;;;3.33;;
78908;SDS011;68298;37.368;127.108;2023-05-07T10:18:35;4.50;;;3.65;;
78908;SDS011;68298;37.368;127.108;2023-05-07T10:24:00;3.35;;;2.90;;
78908;SDS011;68298;37.368;127.108;2023-05-07T10:26:48;4.38;;;3.45;;
78908;SDS011;68298;37.368;127.108;2023-05-07T10:34:54;3.58;;;2.92;;
78908;SDS011;68298;37.368;127.108;2023-05-07T10:37:29;3.38;;;3.05;;
78908;SDS011;68298;37.368;127.108;2023-05-07T10:40:00;3.65;;;3.03;;
78908;SDS011;68298;37.368;127.108;2023-05-07T10:42:32;3.75;;;3.13;;
78908;SDS011;68298;37.368;127.108;2023-05-07T10:45:15;4.70;;;3.33;;
78908;SDS011;68298;37.368;127.108;2023-05-07T10:50:50;4.78;;;3.80;;
78908;SDS011;68298;37.368;127.108;2023-05-07T10:56:52;4.82;;;4.00;;
78908;SDS011;68298;37.368;127.108;2023-05-07T10:59:30;4.47;;;3.60;;
78908;SDS011;68298;37.368;127.108;2023-05-07T11:02:14;4.55;;;3.67;;
78908;SDS011;68298;37.368;127.108;2023-05-07T11:08:03;5.18;;;3.75;;
78908;SDS011;68298;37.368;127.108;2023-05-07T11:16:37;5.38;;;3.70;;
78908;SDS011;68298;37.368;127.108;2023-05-07T11:22:36;5.05;;;3.97;;
78908;SDS011;68298;37.368;127.108;2023-05-07T11:25:34;5.35;;;3.47;;
78908;SDS011;68298;37.368;127.108;2023-05-07T11:28:15;4.63;;;3.80;;
78908;SDS011;68298;37.368;127.108;2023-05-07T11:30:55;4.60;;;3.70;;
78908;SDS011;68298;37.368;127.108;2023-05-07T11:33:26;5.45;;;3.97;;
78908;SDS011;68298;37.368;127.108;2023-05-07T11:36:01;5.50;;;4.20;;
78908;SDS011;68298;37.368;127.108;2023-05-07T11:38:37;7.07;;;4.47;;
78908;SDS011;68298;37.368;127.108;2023-05-07T11:41:08;5.70;;;4.03;;
78908;SDS011;68298;37.368;127.108;2023-05-07T11:43:52;6.90;;;4.10;;
78908;SDS011;68298;37.368;127.108;2023-05-07T11:46:26;5.57;;;4.18;;
78908;SDS011;68298;37.368;127.108;2023-05-07T11:48:58;4.85;;;3.83;;
78908;SDS011;68298;37.368;127.108;2023-05-07T11:51:29;4.75;;;4.20;;
78908;SDS011;68298;37.368;127.108;2023-05-07T11:54:03;5.43;;;4.10;;
78908;SDS011;68298;37.368;127.108;2023-05-07T11:56:38;4.47;;;3.75;;
78908;SDS011;68298;37.368;127.108;2023-05-07T11:59:08;7.13;;;4.40;;
78908;SDS011;68298;37.368;127.108;2023-05-07T12:01:38;6.63;;;4.30;;
78908;SDS011;68298;37.368;127.108;2023-05-07T12:04:09;4.65;;;3.78;;
78908;SDS011;68298;37.368;127.108;2023-05-07T12:06:40;5.22;;;4.28;;
78908;SDS011;68298;37.368;127.108;2023-05-07T12:09:11;6.35;;;4.38;;
78908;SDS011;68298;37.368;127.108;2023-05-07T12:11:41;6.22;;;4.80;;
78908;SDS011;68298;37.368;127.108;2023-05-07T12:14:16;4.53;;;3.97;;
78908;SDS011;68298;37.368;127.108;2023-05-07T12:16:46;5.05;;;4.18;;
78908;SDS011;68298;37.368;127.108;2023-05-07T12:19:17;5.70;;;4.63;;
78908;SDS011;68298;37.368;127.108;2023-05-07T12:21:48;5.97;;;4.82;;
78908;SDS011;68298;37.368;127.108;2023-05-07T12:24:19;4.97;;;4.03;;
78908;SDS011;68298;37.368;127.108;2023-05-07T12:26:50;6.03;;;4.28;;
78908;SDS011;68298;37.368;127.108;2023-05-07T12:29:23;5.05;;;4.38;;
78908;SDS011;68298;37.368;127.108;2023-05-07T12:31:55;7.78;;;4.88;;
78908;SDS011;68298;37.368;127.108;2023-05-07T12:34:25;6.93;;;5.10;;
78908;SDS011;68298;37.368;127.108;2023-05-07T12:36:56;6.10;;;4.80;;
78908;SDS011;68298;37.368;127.108;2023-05-07T12:39:26;6.30;;;4.60;;
78908;SDS011;68298;37.368;127.108;2023-05-07T12:41:58;5.53;;;4.55;;
78908;SDS011;68298;37.368;127.108;2023-05-07T12:44:30;5.68;;;4.47;;
78908;SDS011;68298;37.368;127.108;2023-05-07T12:47:02;6.10;;;4.45;;
78908;SDS011;68298;37.368;127.108;2023-05-07T12:49:34;5.68;;;4.50;;
78908;SDS011;68298;37.368;127.108;2023-05-07T12:52:07;5.10;;;4.28;;
78908;SDS011;68298;37.368;127.108;2023-05-07T12:54:38;5.90;;;4.60;;
78908;SDS011;68298;37.368;127.108;2023-05-07T12:57:09;5.65;;;4.75;;
78908;SDS011;68298;37.368;127.108;2023-05-07T12:59:40;6.53;;;4.50;;
78908;SDS011;68298;37.368;127.108;2023-05-07T13:04:44;7.32;;;4.65;;
78908;SDS011;68298;37.368;127.108;2023-05-07T13:07:14;6.20;;;4.85;;
78908;SDS011;68298;37.368;127.108;2023-05-07T13:09:45;5.85;;;4.20;;
78908;SDS011;68298;37.368;127.108;2023-05-07T13:12:17;6.15;;;4.40;;
78908;SDS011;68298;37.368;127.108;2023-05-07T13:14:48;5.18;;;3.97;;
78908;SDS011;68298;37.368;127.108;2023-05-07T13:17:19;5.03;;;4.15;;
78908;SDS011;68298;37.368;127.108;2023-05-07T13:19:49;6.53;;;4.80;;
78908;SDS011;68298;37.368;127.108;2023-05-07T13:22:21;5.38;;;4.47;;
78908;SDS011;68298;37.368;127.108;2023-05-07T13:24:51;4.68;;;3.90;;
78908;SDS011;68298;37.368;127.108;2023-05-07T13:27:22;6.00;;;4.45;;
78908;SDS011;68298;37.368;127.108;2023-05-07T13:29:52;5.20;;;4.30;;
78908;SDS011;68298;37.368;127.108;2023-05-07T13:32:22;6.13;;;4.47;;
78908;SDS011;68298;37.368;127.108;2023-05-07T13:34:53;5.78;;;4.40;;
78908;SDS011;68298;37.368;127.108;2023-05-07T13:37:23;5.63;;;4.63;;
78908;SDS011;68298;37.368;127.108;2023-05-07T13:39:57;5.70;;;4.28;;
78908;SDS011;68298;37.368;127.108;2023-05-07T13:42:28;6.30;;;4.50;;
78908;SDS011;68298;37.368;127.108;2023-05-07T13:45:01;6.32;;;5.05;;
78908;SDS011;68298;37.368;127.108;2023-05-07T13:47:34;6.27;;;4.70;;
78908;SDS011;68298;37.368;127.108;2023-05-07T13:50:10;6.10;;;4.70;;
78908;SDS011;68298;37.368;127.108;2023-05-07T13:52:42;5.97;;;4.38;;
78908;SDS011;68298;37.368;127.108;2023-05-07T13:55:20;6.53;;;4.55;;
78908;SDS011;68298;37.368;127.108;2023-05-07T13:57:55;6.65;;;4.60;;
78908;SDS011;68298;37.368;127.108;2023-05-07T14:00:27;5.55;;;4.75;;
78908;SDS011;68298;37.368;127.108;2023-05-07T14:02:58;5.85;;;4.93;;
78908;SDS011;68298;37.368;127.108;2023-05-07T14:05:30;6.05;;;4.60;;
78908;SDS011;68298;37.368;127.108;2023-05-07T14:08:00;5.72;;;4.50;;
78908;SDS011;68298;37.368;127.108;2023-05-07T14:10:33;5.53;;;4.30;;
78908;SDS011;68298;37.368;127.108;2023-05-07T14:13:04;5.38;;;4.47;;
78908;SDS011;68298;37.368;127.108;2023-05-07T14:15:35;6.22;;;4.88;;
78908;SDS011;68298;37.368;127.108;2023-05-07T14:18:07;6.72;;;4.70;;
78908;SDS011;68298;37.368;127.108;2023-05-07T14:20:37;6.13;;;4.57;;
78908;SDS011;68298;37.368;127.108;2023-05-07T14:23:09;6.28;;;4.43;;
78908;SDS011;68298;37.368;127.108;2023-05-07T14:25:39;6.85;;;4.43;;
78908;SDS011;68298;37.368;127.108;2023-05-07T14:28:12;5.82;;;4.63;;
78908;SDS011;68298;37.368;127.108;2023-05-07T14:30:44;5.05;;;4.38;;
78908;SDS011;68298;37.368;127.108;2023-05-07T14:33:14;5.63;;;4.75;;
78908;SDS011;68298;37.368;127.108;2023-05-07T14:35:45;5.72;;;4.72;;
78908;SDS011;68298;37.368;127.108;2023-05-07T14:38:17;6.45;;;4.93;;
78908;SDS011;68298;37.368;127.108;2023-05-07T14:40:48;5.85;;;4.50;;
78908;SDS011;68298;37.368;127.108;2023-05-07T14:43:18;5.68;;;4.75;;
78908;SDS011;68298;37.368;127.108;2023-05-07T14:45:49;7.50;;;4.93;;
78908;SDS011;68298;37.368;127.108;2023-05-07T14:48:20;7.47;;;4.53;;
78908;SDS011;68298;37.368;127.108;2023-05-07T14:50:50;5.65;;;4.43;;
78908;SDS011;68298;37.368;127.108;2023-05-07T14:53:21;7.97;;;4.97;;
78908;SDS011;68298;37.368;127.108;2023-05-07T14:55:52;7.18;;;5.03;;
78908;SDS011;68298;37.368;127.108;2023-05-07T14:58:24;6.60;;;4.68;;
78908;SDS011;68298;37.368;127.108;2023-05-07T15:00:55;6.75;;;5.32;;
78908;SDS011;68298;37.368;127.108;2023-05-07T15:03:25;7.10;;;5.00;;
78908;SDS011;68298;37.368;127.108;2023-05-07T15:05:56;7.05;;;4.93;;
78908;SDS011;68298;37.368;127.108;2023-05-07T15:08:27;6.70;;;4.90;;
78908;SDS011;68298;37.368;127.108;2023-05-07T15:10:58;6.20;;;4.75;;
78908;SDS011;68298;37.368;127.108;2023-05-07T15:13:28;6.03;;;4.88;;
78908;SDS011;68298;37.368;127.108;2023-05-07T15:16:00;7.03;;;4.72;;
78908;SDS011;68298;37.368;127.108;2023-05-07T15:18:30;5.20;;;4.60;;
78908;SDS011;68298;37.368;127.108;2023-05-07T15:21:01;6.28;;;5.00;;
78908;SDS011;68298;37.368;127.108;2023-05-07T15:23:32;6.60;;;4.63;;
78908;SDS011;68298;37.368;127.108;2023-05-07T15:26:04;6.55;;;4.80;;
78908;SDS011;68298;37.368;127.108;2023-05-07T15:28:36;7.13;;;4.70;;
78908;SDS011;68298;37.368;127.108;2023-05-07T15:31:07;5.85;;;4.97;;